Terminal Aerodrome Forecast
Issued by NWS

Home | Current Version | Previous Version | Graphics & Text | Print | Product List | Glossary On
Versions: 1 2 3 4 5 6 7 8 9 10 11 12 13 14 15 16 17 18 19 20
000
FTUS41 KCLE 190300 AAA
TAFFDY
TAF AMD
KFDY 190340Z 1904/1924 27008KT P6SM SCT015 OVC025
     FM190600 29004KT P6SM OVC015
     FM191300 32004KT P6SM OVC012
     FM192000 VRB03KT P6SM BKN020=

USA.gov is the U.S. government's official web portal to all federal, state and local government web resources and services.